sensor_id;sensor_type;location;lat;lon;timestamp;P1;durP1;ratioP1;P2;durP2;ratioP2
18610;SDS011;9435;52.122;5.502;2023-07-20T00:00:08;8.23;;;5.22;;
18610;SDS011;9435;52.122;5.502;2023-07-20T00:02:37;6.80;;;4.88;;
18610;SDS011;9435;52.122;5.502;2023-07-20T00:05:05;8.23;;;4.97;;
18610;SDS011;9435;52.122;5.502;2023-07-20T00:07:32;8.05;;;4.57;;
18610;SDS011;9435;52.122;5.502;2023-07-20T00:09:59;6.55;;;4.20;;
18610;SDS011;9435;52.122;5.502;2023-07-20T00:12:28;7.88;;;4.40;;
18610;SDS011;9435;52.122;5.502;2023-07-20T00:14:55;7.28;;;4.05;;
18610;SDS011;9435;52.122;5.502;2023-07-20T00:17:22;6.68;;;4.30;;
18610;SDS011;9435;52.122;5.502;2023-07-20T00:19:49;6.50;;;4.05;;
18610;SDS011;9435;52.122;5.502;2023-07-20T00:22:16;5.85;;;3.80;;
18610;SDS011;9435;52.122;5.502;2023-07-20T00:24:43;6.15;;;3.67;;
18610;SDS011;9435;52.122;5.502;2023-07-20T00:27:10;4.63;;;3.40;;
18610;SDS011;9435;52.122;5.502;2023-07-20T00:29:39;4.55;;;3.10;;
18610;SDS011;9435;52.122;5.502;2023-07-20T00:32:06;4.82;;;2.75;;
18610;SDS011;9435;52.122;5.502;2023-07-20T00:34:33;7.13;;;3.30;;
18610;SDS011;9435;52.122;5.502;2023-07-20T00:37:00;4.05;;;2.50;;
18610;SDS011;9435;52.122;5.502;2023-07-20T00:39:28;5.22;;;2.85;;
18610;SDS011;9435;52.122;5.502;2023-07-20T00:41:55;5.05;;;2.80;;
18610;SDS011;9435;52.122;5.502;2023-07-20T00:44:22;4.60;;;2.55;;
18610;SDS011;9435;52.122;5.502;2023-07-20T00:46:50;3.22;;;2.45;;
18610;SDS011;9435;52.122;5.502;2023-07-20T00:49:18;3.08;;;2.40;;
18610;SDS011;9435;52.122;5.502;2023-07-20T00:51:47;3.33;;;2.30;;
18610;SDS011;9435;52.122;5.502;2023-07-20T00:54:15;3.90;;;2.38;;
18610;SDS011;9435;52.122;5.502;2023-07-20T00:56:43;3.13;;;1.98;;
18610;SDS011;9435;52.122;5.502;2023-07-20T00:59:11;2.72;;;2.15;;
18610;SDS011;9435;52.122;5.502;2023-07-20T01:01:39;3.53;;;2.17;;
18610;SDS011;9435;52.122;5.502;2023-07-20T01:04:07;3.30;;;2.28;;
18610;SDS011;9435;52.122;5.502;2023-07-20T01:06:36;3.10;;;2.00;;
18610;SDS011;9435;52.122;5.502;2023-07-20T01:09:11;4.57;;;2.22;;
18610;SDS011;9435;52.122;5.502;2023-07-20T01:11:43;3.67;;;1.83;;
18610;SDS011;9435;52.122;5.502;2023-07-20T01:14:15;2.88;;;1.85;;
18610;SDS011;9435;52.122;5.502;2023-07-20T01:16:44;2.60;;;1.90;;
18610;SDS011;9435;52.122;5.502;2023-07-20T01:19:12;3.67;;;2.00;;
18610;SDS011;9435;52.122;5.502;2023-07-20T01:21:42;2.97;;;1.90;;
18610;SDS011;9435;52.122;5.502;2023-07-20T01:27:26;2.33;;;1.80;;
18610;SDS011;9435;52.122;5.502;2023-07-20T01:33:10;2.42;;;1.90;;
18610;SDS011;9435;52.122;5.502;2023-07-20T01:35:39;4.07;;;2.30;;
18610;SDS011;9435;52.122;5.502;2023-07-20T01:38:10;2.42;;;1.58;;
18610;SDS011;9435;52.122;5.502;2023-07-20T01:40:38;2.05;;;1.60;;
18610;SDS011;9435;52.122;5.502;2023-07-20T01:43:06;2.13;;;1.85;;
18610;SDS011;9435;52.122;5.502;2023-07-20T01:45:33;3.00;;;1.70;;
18610;SDS011;9435;52.122;5.502;2023-07-20T01:48:00;3.75;;;1.90;;
18610;SDS011;9435;52.122;5.502;2023-07-20T01:50:30;3.13;;;1.90;;
18610;SDS011;9435;52.122;5.502;2023-07-20T01:52:57;3.10;;;1.75;;
18610;SDS011;9435;52.122;5.502;2023-07-20T01:55:24;2.55;;;1.80;;
18610;SDS011;9435;52.122;5.502;2023-07-20T01:57:52;4.30;;;1.88;;
18610;SDS011;9435;52.122;5.502;2023-07-20T02:00:19;2.65;;;1.58;;
18610;SDS011;9435;52.122;5.502;2023-07-20T02:02:49;2.75;;;1.70;;
18610;SDS011;9435;52.122;5.502;2023-07-20T02:05:15;1.85;;;1.65;;
18610;SDS011;9435;52.122;5.502;2023-07-20T02:07:44;2.00;;;1.58;;
18610;SDS011;9435;52.122;5.502;2023-07-20T02:10:11;2.85;;;1.80;;
18610;SDS011;9435;52.122;5.502;2023-07-20T02:12:38;4.45;;;1.75;;
18610;SDS011;9435;52.122;5.502;2023-07-20T02:15:05;2.13;;;1.55;;
18610;SDS011;9435;52.122;5.502;2023-07-20T02:17:33;2.03;;;1.52;;
18610;SDS011;9435;52.122;5.502;2023-07-20T02:20:00;2.55;;;1.67;;
18610;SDS011;9435;52.122;5.502;2023-07-20T02:22:28;2.78;;;1.60;;
18610;SDS011;9435;52.122;5.502;2023-07-20T02:24:56;3.40;;;1.70;;
18610;SDS011;9435;52.122;5.502;2023-07-20T02:27:23;3.50;;;2.00;;
18610;SDS011;9435;52.122;5.502;2023-07-20T02:29:50;2.45;;;1.90;;
18610;SDS011;9435;52.122;5.502;2023-07-20T02:32:17;2.35;;;1.70;;
18610;SDS011;9435;52.122;5.502;2023-07-20T02:34:45;4.32;;;1.85;;
18610;SDS011;9435;52.122;5.502;2023-07-20T02:37:12;2.58;;;1.67;;
18610;SDS011;9435;52.122;5.502;2023-07-20T02:39:39;2.38;;;1.85;;
18610;SDS011;9435;52.122;5.502;2023-07-20T02:42:07;3.10;;;1.80;;
18610;SDS011;9435;52.122;5.502;2023-07-20T02:44:34;2.55;;;1.98;;
18610;SDS011;9435;52.122;5.502;2023-07-20T02:47:01;2.30;;;1.70;;
18610;SDS011;9435;52.122;5.502;2023-07-20T02:49:28;2.85;;;1.95;;
18610;SDS011;9435;52.122;5.502;2023-07-20T02:51:55;2.70;;;1.95;;
18610;SDS011;9435;52.122;5.502;2023-07-20T02:54:22;3.92;;;2.15;;
18610;SDS011;9435;52.122;5.502;2023-07-20T02:56:49;3.55;;;2.00;;
18610;SDS011;9435;52.122;5.502;2023-07-20T02:59:18;2.92;;;2.05;;
18610;SDS011;9435;52.122;5.502;2023-07-20T03:01:45;2.72;;;2.08;;
18610;SDS011;9435;52.122;5.502;2023-07-20T03:04:12;2.80;;;1.98;;
18610;SDS011;9435;52.122;5.502;2023-07-20T03:06:39;2.95;;;2.15;;
18610;SDS011;9435;52.122;5.502;2023-07-20T03:09:06;3.63;;;2.67;;
18610;SDS011;9435;52.122;5.502;2023-07-20T03:11:34;2.70;;;2.28;;
18610;SDS011;9435;52.122;5.502;2023-07-20T03:14:01;3.83;;;2.20;;
18610;SDS011;9435;52.122;5.502;2023-07-20T03:16:30;3.42;;;2.00;;
18610;SDS011;9435;52.122;5.502;2023-07-20T03:18:58;3.05;;;2.50;;
18610;SDS011;9435;52.122;5.502;2023-07-20T03:21:25;3.17;;;2.28;;
18610;SDS011;9435;52.122;5.502;2023-07-20T03:23:52;3.40;;;2.25;;
18610;SDS011;9435;52.122;5.502;2023-07-20T03:26:19;3.45;;;2.30;;
18610;SDS011;9435;52.122;5.502;2023-07-20T03:28:46;3.17;;;2.10;;
18610;SDS011;9435;52.122;5.502;2023-07-20T03:31:14;4.30;;;2.55;;
18610;SDS011;9435;52.122;5.502;2023-07-20T03:33:42;2.88;;;2.35;;
18610;SDS011;9435;52.122;5.502;2023-07-20T03:36:09;2.80;;;2.50;;
18610;SDS011;9435;52.122;5.502;2023-07-20T03:38:36;4.30;;;2.45;;
18610;SDS011;9435;52.122;5.502;2023-07-20T03:41:03;3.60;;;2.60;;
18610;SDS011;9435;52.122;5.502;2023-07-20T03:43:30;3.38;;;2.60;;
18610;SDS011;9435;52.122;5.502;2023-07-20T03:45:57;5.68;;;3.10;;
18610;SDS011;9435;52.122;5.502;2023-07-20T03:48:24;3.20;;;2.55;;
18610;SDS011;9435;52.122;5.502;2023-07-20T03:50:53;5.97;;;2.95;;
18610;SDS011;9435;52.122;5.502;2023-07-20T03:53:20;5.18;;;2.80;;
18610;SDS011;9435;52.122;5.502;2023-07-20T03:55:47;4.43;;;2.85;;
18610;SDS011;9435;52.122;5.502;2023-07-20T03:58:15;3.00;;;2.40;;
18610;SDS011;9435;52.122;5.502;2023-07-20T04:00:46;2.90;;;2.30;;
18610;SDS011;9435;52.122;5.502;2023-07-20T04:03:15;3.50;;;2.72;;
18610;SDS011;9435;52.122;5.502;2023-07-20T04:05:45;3.50;;;2.60;;
18610;SDS011;9435;52.122;5.502;2023-07-20T04:08:17;3.35;;;2.85;;
18610;SDS011;9435;52.122;5.502;2023-07-20T04:10:45;5.15;;;3.00;;
18610;SDS011;9435;52.122;5.502;2023-07-20T04:13:12;3.38;;;2.70;;
18610;SDS011;9435;52.122;5.502;2023-07-20T04:15:39;3.10;;;2.72;;
18610;SDS011;9435;52.122;5.502;2023-07-20T04:18:06;4.95;;;3.42;;
18610;SDS011;9435;52.122;5.502;2023-07-20T04:20:33;5.40;;;2.67;;
18610;SDS011;9435;52.122;5.502;2023-07-20T04:23:00;3.90;;;3.05;;
18610;SDS011;9435;52.122;5.502;2023-07-20T04:25:28;3.70;;;2.55;;
18610;SDS011;9435;52.122;5.502;2023-07-20T04:28:04;4.00;;;3.00;;
18610;SDS011;9435;52.122;5.502;2023-07-20T04:30:33;4.55;;;3.00;;
18610;SDS011;9435;52.122;5.502;2023-07-20T04:33:01;3.63;;;2.90;;
18610;SDS011;9435;52.122;5.502;2023-07-20T04:35:44;5.38;;;3.22;;
18610;SDS011;9435;52.122;5.502;2023-07-20T04:38:13;3.28;;;2.90;;
18610;SDS011;9435;52.122;5.502;2023-07-20T04:40:44;5.28;;;2.95;;
18610;SDS011;9435;52.122;5.502;2023-07-20T04:43:11;7.32;;;3.10;;
18610;SDS011;9435;52.122;5.502;2023-07-20T04:45:38;4.45;;;3.20;;
18610;SDS011;9435;52.122;5.502;2023-07-20T04:48:06;5.25;;;3.00;;
18610;SDS011;9435;52.122;5.502;2023-07-20T04:50:38;4.93;;;3.17;;
18610;SDS011;9435;52.122;5.502;2023-07-20T04:53:06;5.07;;;3.10;;
18610;SDS011;9435;52.122;5.502;2023-07-20T04:55:33;6.95;;;3.60;;
18610;SDS011;9435;52.122;5.502;2023-07-20T04:58:03;4.10;;;3.20;;
18610;SDS011;9435;52.122;5.502;2023-07-20T05:00:30;3.65;;;2.97;;
18610;SDS011;9435;52.122;5.502;2023-07-20T05:02:58;5.80;;;3.30;;
18610;SDS011;9435;52.122;5.502;2023-07-20T05:05:25;4.57;;;3.47;;
18610;SDS011;9435;52.122;5.502;2023-07-20T05:07:52;5.00;;;3.20;;
18610;SDS011;9435;52.122;5.502;2023-07-20T05:10:19;4.25;;;3.10;;
18610;SDS011;9435;52.122;5.502;2023-07-20T05:12:46;4.07;;;2.80;;
18610;SDS011;9435;52.122;5.502;2023-07-20T05:15:15;3.72;;;2.90;;
18610;SDS011;9435;52.122;5.502;2023-07-20T05:17:42;3.78;;;2.88;;
18610;SDS011;9435;52.122;5.502;2023-07-20T05:20:09;4.40;;;3.38;;
18610;SDS011;9435;52.122;5.502;2023-07-20T05:22:37;4.20;;;3.30;;
18610;SDS011;9435;52.122;5.502;2023-07-20T05:25:06;5.05;;;3.50;;
18610;SDS011;9435;52.122;5.502;2023-07-20T05:27:34;4.80;;;3.67;;
18610;SDS011;9435;52.122;5.502;2023-07-20T05:30:03;5.75;;;3.92;;
18610;SDS011;9435;52.122;5.502;2023-07-20T05:32:32;5.82;;;3.95;;
18610;SDS011;9435;52.122;5.502;2023-07-20T05:34:59;6.00;;;4.18;;
18610;SDS011;9435;52.122;5.502;2023-07-20T05:37:26;7.13;;;4.50;;
18610;SDS011;9435;52.122;5.502;2023-07-20T05:39:53;7.78;;;4.30;;
18610;SDS011;9435;52.122;5.502;2023-07-20T05:42:20;6.38;;;4.07;;
18610;SDS011;9435;52.122;5.502;2023-07-20T05:44:47;5.75;;;4.30;;
18610;SDS011;9435;52.122;5.502;2023-07-20T05:47:15;6.47;;;4.55;;
18610;SDS011;9435;52.122;5.502;2023-07-20T05:49:43;7.28;;;4.50;;
18610;SDS011;9435;52.122;5.502;2023-07-20T05:52:12;6.05;;;4.70;;
18610;SDS011;9435;52.122;5.502;2023-07-20T05:54:40;6.40;;;4.78;;
18610;SDS011;9435;52.122;5.502;2023-07-20T05:57:07;6.97;;;4.43;;
18610;SDS011;9435;52.122;5.502;2023-07-20T05:59:34;6.03;;;4.18;;
18610;SDS011;9435;52.122;5.502;2023-07-20T06:02:01;8.38;;;4.45;;
18610;SDS011;9435;52.122;5.502;2023-07-20T06:04:29;5.65;;;4.35;;
18610;SDS011;9435;52.122;5.502;2023-07-20T06:06:57;6.78;;;4.53;;
18610;SDS011;9435;52.122;5.502;2023-07-20T06:09:24;5.63;;;3.75;;
18610;SDS011;9435;52.122;5.502;2023-07-20T06:11:52;5.45;;;3.90;;
18610;SDS011;9435;52.122;5.502;2023-07-20T06:14:19;5.38;;;3.45;;
18610;SDS011;9435;52.122;5.502;2023-07-20T06:16:46;5.15;;;3.63;;
18610;SDS011;9435;52.122;5.502;2023-07-20T06:19:13;4.60;;;3.20;;
18610;SDS011;9435;52.122;5.502;2023-07-20T06:21:41;4.03;;;2.78;;
18610;SDS011;9435;52.122;5.502;2023-07-20T06:24:10;4.00;;;3.00;;
18610;SDS011;9435;52.122;5.502;2023-07-20T06:26:37;3.97;;;2.50;;
18610;SDS011;9435;52.122;5.502;2023-07-20T06:29:04;2.88;;;2.22;;
18610;SDS011;9435;52.122;5.502;2023-07-20T06:31:32;2.85;;;2.15;;
18610;SDS011;9435;52.122;5.502;2023-07-20T06:33:59;3.15;;;2.10;;
18610;SDS011;9435;52.122;5.502;2023-07-20T06:36:26;2.20;;;1.20;;
18610;SDS011;9435;52.122;5.502;2023-07-20T06:38:54;3.80;;;1.70;;
18610;SDS011;9435;52.122;5.502;2023-07-20T06:41:22;2.47;;;1.88;;
18610;SDS011;9435;52.122;5.502;2023-07-20T06:43:52;2.95;;;1.50;;
18610;SDS011;9435;52.122;5.502;2023-07-20T06:46:23;2.30;;;1.70;;
18610;SDS011;9435;52.122;5.502;2023-07-20T06:48:50;2.47;;;1.60;;
18610;SDS011;9435;52.122;5.502;2023-07-20T06:51:18;3.95;;;1.73;;
18610;SDS011;9435;52.122;5.502;2023-07-20T06:53:45;3.58;;;1.70;;
18610;SDS011;9435;52.122;5.502;2023-07-20T06:56:12;2.83;;;1.60;;
18610;SDS011;9435;52.122;5.502;2023-07-20T06:58:41;3.50;;;1.63;;
18610;SDS011;9435;52.122;5.502;2023-07-20T07:01:08;3.15;;;1.48;;
18610;SDS011;9435;52.122;5.502;2023-07-20T07:03:35;2.05;;;1.50;;
18610;SDS011;9435;52.122;5.502;2023-07-20T07:06:03;2.72;;;1.40;;
18610;SDS011;9435;52.122;5.502;2023-07-20T07:08:30;1.73;;;1.20;;
18610;SDS011;9435;52.122;5.502;2023-07-20T07:10:57;1.70;;;1.10;;
18610;SDS011;9435;52.122;5.502;2023-07-20T07:13:24;2.63;;;1.20;;
18610;SDS011;9435;52.122;5.502;2023-07-20T07:15:52;2.72;;;1.23;;
18610;SDS011;9435;52.122;5.502;2023-07-20T07:18:20;2.17;;;1.08;;
18610;SDS011;9435;52.122;5.502;2023-07-20T07:20:50;1.60;;;1.00;;
18610;SDS011;9435;52.122;5.502;2023-07-20T07:23:18;2.40;;;0.95;;
18610;SDS011;9435;52.122;5.502;2023-07-20T07:25:45;2.00;;;0.95;;
18610;SDS011;9435;52.122;5.502;2023-07-20T07:28:13;1.70;;;0.90;;
18610;SDS011;9435;52.122;5.502;2023-07-20T07:30:40;1.73;;;0.77;;
18610;SDS011;9435;52.122;5.502;2023-07-20T07:33:08;1.73;;;0.93;;
18610;SDS011;9435;52.122;5.502;2023-07-20T07:35:36;2.22;;;1.00;;
18610;SDS011;9435;52.122;5.502;2023-07-20T07:38:03;1.63;;;0.80;;
18610;SDS011;9435;52.122;5.502;2023-07-20T07:40:31;2.00;;;0.90;;
18610;SDS011;9435;52.122;5.502;2023-07-20T07:42:58;1.98;;;0.85;;
18610;SDS011;9435;52.122;5.502;2023-07-20T07:45:25;2.30;;;0.90;;
18610;SDS011;9435;52.122;5.502;2023-07-20T07:47:52;2.30;;;1.10;;
18610;SDS011;9435;52.122;5.502;2023-07-20T07:50:21;2.42;;;1.15;;
18610;SDS011;9435;52.122;5.502;2023-07-20T07:52:48;1.15;;;0.90;;
18610;SDS011;9435;52.122;5.502;2023-07-20T07:55:15;1.50;;;0.80;;
18610;SDS011;9435;52.122;5.502;2023-07-20T07:57:43;1.23;;;0.80;;
18610;SDS011;9435;52.122;5.502;2023-07-20T08:00:10;1.77;;;0.90;;
18610;SDS011;9435;52.122;5.502;2023-07-20T08:02:40;3.80;;;1.23;;
18610;SDS011;9435;52.122;5.502;2023-07-20T08:05:08;2.53;;;0.93;;
18610;SDS011;9435;52.122;5.502;2023-07-20T08:07:37;0.90;;;0.60;;
18610;SDS011;9435;52.122;5.502;2023-07-20T08:10:04;2.10;;;0.57;;
18610;SDS011;9435;52.122;5.502;2023-07-20T08:12:32;0.98;;;0.68;;
18610;SDS011;9435;52.122;5.502;2023-07-20T08:14:59;1.50;;;0.70;;
18610;SDS011;9435;52.122;5.502;2023-07-20T08:17:26;2.15;;;0.60;;
18610;SDS011;9435;52.122;5.502;2023-07-20T08:19:54;2.28;;;0.80;;
18610;SDS011;9435;52.122;5.502;2023-07-20T08:22:21;1.08;;;0.63;;
18610;SDS011;9435;52.122;5.502;2023-07-20T08:24:49;1.55;;;0.70;;
18610;SDS011;9435;52.122;5.502;2023-07-20T08:27:16;2.42;;;0.77;;
18610;SDS011;9435;52.122;5.502;2023-07-20T08:29:43;0.93;;;0.68;;
18610;SDS011;9435;52.122;5.502;2023-07-20T08:32:11;0.90;;;0.50;;
18610;SDS011;9435;52.122;5.502;2023-07-20T08:34:39;1.00;;;0.60;;
18610;SDS011;9435;52.122;5.502;2023-07-20T08:37:08;3.15;;;0.60;;
18610;SDS011;9435;52.122;5.502;2023-07-20T08:39:35;2.55;;;0.70;;
18610;SDS011;9435;52.122;5.502;2023-07-20T08:42:04;3.80;;;0.90;;
18610;SDS011;9435;52.122;5.502;2023-07-20T08:44:32;2.95;;;0.90;;
18610;SDS011;9435;52.122;5.502;2023-07-20T08:47:00;2.67;;;0.80;;
18610;SDS011;9435;52.122;5.502;2023-07-20T08:49:29;1.13;;;0.75;;
18610;SDS011;9435;52.122;5.502;2023-07-20T08:51:58;1.27;;;0.60;;
18610;SDS011;9435;52.122;5.502;2023-07-20T08:54:26;2.08;;;0.60;;
18610;SDS011;9435;52.122;5.502;2023-07-20T08:56:57;1.15;;;0.60;;
18610;SDS011;9435;52.122;5.502;2023-07-20T08:59:29;2.30;;;0.57;;
18610;SDS011;9435;52.122;5.502;2023-07-20T09:01:58;0.95;;;0.52;;
18610;SDS011;9435;52.122;5.502;2023-07-20T09:04:26;1.85;;;0.50;;
18610;SDS011;9435;52.122;5.502;2023-07-20T09:06:53;0.65;;;0.40;;
18610;SDS011;9435;52.122;5.502;2023-07-20T09:09:20;2.92;;;0.80;;
18610;SDS011;9435;52.122;5.502;2023-07-20T09:11:47;2.38;;;0.60;;
18610;SDS011;9435;52.122;5.502;2023-07-20T09:14:15;0.88;;;0.40;;
18610;SDS011;9435;52.122;5.502;2023-07-20T09:16:50;1.65;;;0.57;;
18610;SDS011;9435;52.122;5.502;2023-07-20T09:19:19;0.82;;;0.60;;
18610;SDS011;9435;52.122;5.502;2023-07-20T09:21:48;2.85;;;0.63;;
18610;SDS011;9435;52.122;5.502;2023-07-20T09:24:17;1.25;;;0.65;;
18610;SDS011;9435;52.122;5.502;2023-07-20T09:26:45;1.08;;;0.60;;
18610;SDS011;9435;52.122;5.502;2023-07-20T09:29:14;1.70;;;0.70;;
18610;SDS011;9435;52.122;5.502;2023-07-20T09:31:44;1.85;;;0.60;;
18610;SDS011;9435;52.122;5.502;2023-07-20T09:34:28;2.55;;;0.65;;
18610;SDS011;9435;52.122;5.502;2023-07-20T09:36:55;0.70;;;0.45;;
18610;SDS011;9435;52.122;5.502;2023-07-20T09:39:22;0.50;;;0.40;;
18610;SDS011;9435;52.122;5.502;2023-07-20T09:41:50;1.52;;;0.47;;
18610;SDS011;9435;52.122;5.502;2023-07-20T09:44:18;0.70;;;0.40;;
18610;SDS011;9435;52.122;5.502;2023-07-20T09:46:46;1.13;;;0.50;;
18610;SDS011;9435;52.122;5.502;2023-07-20T09:49:15;0.88;;;0.40;;
18610;SDS011;9435;52.122;5.502;2023-07-20T09:51:44;0.93;;;0.45;;
18610;SDS011;9435;52.122;5.502;2023-07-20T09:54:13;1.23;;;0.50;;
18610;SDS011;9435;52.122;5.502;2023-07-20T09:56:40;1.58;;;0.50;;
18610;SDS011;9435;52.122;5.502;2023-07-20T09:59:08;1.20;;;0.50;;
18610;SDS011;9435;52.122;5.502;2023-07-20T10:01:35;1.17;;;0.60;;
18610;SDS011;9435;52.122;5.502;2023-07-20T10:04:07;1.38;;;0.60;;
18610;SDS011;9435;52.122;5.502;2023-07-20T10:06:37;0.98;;;0.63;;
18610;SDS011;9435;52.122;5.502;2023-07-20T10:09:08;1.90;;;0.80;;
18610;SDS011;9435;52.122;5.502;2023-07-20T10:11:40;1.02;;;0.60;;
18610;SDS011;9435;52.122;5.502;2023-07-20T10:14:20;1.63;;;0.60;;
18610;SDS011;9435;52.122;5.502;2023-07-20T10:16:49;1.92;;;0.60;;
18610;SDS011;9435;52.122;5.502;2023-07-20T10:19:21;1.90;;;0.60;;
18610;SDS011;9435;52.122;5.502;2023-07-20T10:21:54;0.90;;;0.68;;
18610;SDS011;9435;52.122;5.502;2023-07-20T10:24:25;1.42;;;0.60;;
18610;SDS011;9435;52.122;5.502;2023-07-20T10:26:55;1.48;;;0.52;;
18610;SDS011;9435;52.122;5.502;2023-07-20T10:29:22;1.48;;;0.60;;
18610;SDS011;9435;52.122;5.502;2023-07-20T10:31:52;1.10;;;0.70;;
18610;SDS011;9435;52.122;5.502;2023-07-20T10:34:20;1.67;;;0.73;;
18610;SDS011;9435;52.122;5.502;2023-07-20T10:36:48;1.05;;;0.50;;
18610;SDS011;9435;52.122;5.502;2023-07-20T10:39:47;1.17;;;0.60;;
18610;SDS011;9435;52.122;5.502;2023-07-20T10:42:47;1.17;;;0.60;;
18610;SDS011;9435;52.122;5.502;2023-07-20T10:45:14;1.05;;;0.60;;
18610;SDS011;9435;52.122;5.502;2023-07-20T10:47:44;1.27;;;0.60;;
18610;SDS011;9435;52.122;5.502;2023-07-20T10:50:12;0.90;;;0.50;;
18610;SDS011;9435;52.122;5.502;2023-07-20T10:52:39;1.35;;;0.60;;
18610;SDS011;9435;52.122;5.502;2023-07-20T10:55:13;1.13;;;0.60;;
18610;SDS011;9435;52.122;5.502;2023-07-20T10:57:41;0.73;;;0.50;;
18610;SDS011;9435;52.122;5.502;2023-07-20T11:00:11;0.95;;;0.43;;
18610;SDS011;9435;52.122;5.502;2023-07-20T11:02:43;2.08;;;0.50;;
18610;SDS011;9435;52.122;5.502;2023-07-20T11:08:03;0.90;;;0.50;;
18610;SDS011;9435;52.122;5.502;2023-07-20T11:10:33;0.50;;;0.50;;
18610;SDS011;9435;52.122;5.502;2023-07-20T11:13:19;1.55;;;0.50;;
18610;SDS011;9435;52.122;5.502;2023-07-20T11:15:48;0.85;;;0.50;;
18610;SDS011;9435;52.122;5.502;2023-07-20T11:18:28;1.25;;;0.50;;
18610;SDS011;9435;52.122;5.502;2023-07-20T11:20:56;1.08;;;0.60;;
18610;SDS011;9435;52.122;5.502;2023-07-20T11:23:23;1.75;;;0.52;;
18610;SDS011;9435;52.122;5.502;2023-07-20T11:29:26;1.50;;;0.50;;
18610;SDS011;9435;52.122;5.502;2023-07-20T11:31:53;3.17;;;0.50;;
18610;SDS011;9435;52.122;5.502;2023-07-20T11:34:20;5.85;;;0.85;;
18610;SDS011;9435;52.122;5.502;2023-07-20T11:36:48;0.60;;;0.40;;
18610;SDS011;9435;52.122;5.502;2023-07-20T11:39:16;0.82;;;0.50;;
18610;SDS011;9435;52.122;5.502;2023-07-20T11:41:46;0.93;;;0.50;;
18610;SDS011;9435;52.122;5.502;2023-07-20T11:44:13;0.70;;;0.50;;
18610;SDS011;9435;52.122;5.502;2023-07-20T11:46:43;0.80;;;0.50;;
18610;SDS011;9435;52.122;5.502;2023-07-20T11:49:11;2.50;;;0.57;;
18610;SDS011;9435;52.122;5.502;2023-07-20T11:51:39;1.60;;;0.50;;
18610;SDS011;9435;52.122;5.502;2023-07-20T11:54:07;0.70;;;0.50;;
18610;SDS011;9435;52.122;5.502;2023-07-20T11:56:35;0.75;;;0.50;;
18610;SDS011;9435;52.122;5.502;2023-07-20T11:59:07;0.50;;;0.40;;
18610;SDS011;9435;52.122;5.502;2023-07-20T12:01:34;0.70;;;0.38;;
18610;SDS011;9435;52.122;5.502;2023-07-20T12:04:03;0.88;;;0.50;;
18610;SDS011;9435;52.122;5.502;2023-07-20T12:06:32;1.50;;;0.40;;
18610;SDS011;9435;52.122;5.502;2023-07-20T12:09:01;1.05;;;0.50;;
18610;SDS011;9435;52.122;5.502;2023-07-20T12:11:32;0.60;;;0.45;;
18610;SDS011;9435;52.122;5.502;2023-07-20T12:14:02;1.67;;;0.50;;
18610;SDS011;9435;52.122;5.502;2023-07-20T12:16:30;0.93;;;0.50;;
18610;SDS011;9435;52.122;5.502;2023-07-20T12:19:01;1.27;;;0.40;;
18610;SDS011;9435;52.122;5.502;2023-07-20T12:21:31;0.60;;;0.40;;
18610;SDS011;9435;52.122;5.502;2023-07-20T12:24:00;2.95;;;0.52;;
18610;SDS011;9435;52.122;5.502;2023-07-20T12:26:28;0.90;;;0.43;;
18610;SDS011;9435;52.122;5.502;2023-07-20T12:28:56;3.72;;;0.65;;
18610;SDS011;9435;52.122;5.502;2023-07-20T12:31:24;2.15;;;0.50;;
18610;SDS011;9435;52.122;5.502;2023-07-20T12:33:53;0.65;;;0.50;;
18610;SDS011;9435;52.122;5.502;2023-07-20T12:36:23;4.40;;;0.60;;
18610;SDS011;9435;52.122;5.502;2023-07-20T12:38:50;0.65;;;0.40;;
18610;SDS011;9435;52.122;5.502;2023-07-20T12:41:17;2.40;;;0.60;;
18610;SDS011;9435;52.122;5.502;2023-07-20T12:43:44;1.83;;;0.50;;
18610;SDS011;9435;52.122;5.502;2023-07-20T12:46:12;0.90;;;0.60;;
18610;SDS011;9435;52.122;5.502;2023-07-20T12:48:40;1.67;;;0.50;;
18610;SDS011;9435;52.122;5.502;2023-07-20T12:51:07;1.15;;;0.60;;
18610;SDS011;9435;52.122;5.502;2023-07-20T12:53:36;1.00;;;0.50;;
18610;SDS011;9435;52.122;5.502;2023-07-20T12:56:03;0.55;;;0.40;;
18610;SDS011;9435;52.122;5.502;2023-07-20T12:58:31;1.50;;;0.55;;
18610;SDS011;9435;52.122;5.502;2023-07-20T13:00:58;2.92;;;0.40;;
18610;SDS011;9435;52.122;5.502;2023-07-20T13:03:25;0.90;;;0.40;;
18610;SDS011;9435;52.122;5.502;2023-07-20T13:05:52;2.95;;;0.52;;
18610;SDS011;9435;52.122;5.502;2023-07-20T13:08:19;0.80;;;0.43;;
18610;SDS011;9435;52.122;5.502;2023-07-20T13:10:51;0.65;;;0.50;;
18610;SDS011;9435;52.122;5.502;2023-07-20T13:13:18;0.77;;;0.50;;
18610;SDS011;9435;52.122;5.502;2023-07-20T13:15:45;0.80;;;0.50;;
18610;SDS011;9435;52.122;5.502;2023-07-20T13:18:13;1.00;;;0.50;;
18610;SDS011;9435;52.122;5.502;2023-07-20T13:20:41;0.95;;;0.45;;
18610;SDS011;9435;52.122;5.502;2023-07-20T13:23:08;2.05;;;0.40;;
18610;SDS011;9435;52.122;5.502;2023-07-20T13:25:35;1.05;;;0.50;;
18610;SDS011;9435;52.122;5.502;2023-07-20T13:28:04;0.82;;;0.50;;
18610;SDS011;9435;52.122;5.502;2023-07-20T13:30:31;0.90;;;0.47;;
18610;SDS011;9435;52.122;5.502;2023-07-20T13:32:58;0.88;;;0.52;;
18610;SDS011;9435;52.122;5.502;2023-07-20T13:35:25;1.00;;;0.60;;
18610;SDS011;9435;52.122;5.502;2023-07-20T13:37:52;1.02;;;0.60;;
18610;SDS011;9435;52.122;5.502;2023-07-20T13:40:19;1.50;;;0.63;;
18610;SDS011;9435;52.122;5.502;2023-07-20T13:42:47;1.35;;;0.60;;
18610;SDS011;9435;52.122;5.502;2023-07-20T13:45:16;1.38;;;0.70;;
18610;SDS011;9435;52.122;5.502;2023-07-20T13:47:43;3.30;;;0.85;;
18610;SDS011;9435;52.122;5.502;2023-07-20T13:50:11;1.73;;;0.80;;
18610;SDS011;9435;52.122;5.502;2023-07-20T13:52:38;3.05;;;0.85;;
18610;SDS011;9435;52.122;5.502;2023-07-20T13:55:05;1.25;;;0.77;;
18610;SDS011;9435;52.122;5.502;2023-07-20T13:57:32;2.25;;;0.80;;
18610;SDS011;9435;52.122;5.502;2023-07-20T13:59:59;1.27;;;0.70;;
18610;SDS011;9435;52.122;5.502;2023-07-20T14:02:28;0.77;;;0.60;;
18610;SDS011;9435;52.122;5.502;2023-07-20T14:04:55;0.93;;;0.60;;
18610;SDS011;9435;52.122;5.502;2023-07-20T14:07:23;4.13;;;0.88;;
18610;SDS011;9435;52.122;5.502;2023-07-20T14:09:50;1.17;;;0.70;;
18610;SDS011;9435;52.122;5.502;2023-07-20T14:12:17;1.13;;;0.60;;
18610;SDS011;9435;52.122;5.502;2023-07-20T14:14:45;1.13;;;0.80;;
18610;SDS011;9435;52.122;5.502;2023-07-20T14:17:12;0.63;;;0.60;;
18610;SDS011;9435;52.122;5.502;2023-07-20T14:19:40;1.50;;;0.80;;
18610;SDS011;9435;52.122;5.502;2023-07-20T14:22:07;1.00;;;0.73;;
18610;SDS011;9435;52.122;5.502;2023-07-20T14:24:34;1.45;;;0.60;;
18610;SDS011;9435;52.122;5.502;2023-07-20T14:27:01;2.05;;;0.80;;
18610;SDS011;9435;52.122;5.502;2023-07-20T14:29:28;2.92;;;0.70;;
18610;SDS011;9435;52.122;5.502;2023-07-20T14:31:56;1.20;;;0.80;;
18610;SDS011;9435;52.122;5.502;2023-07-20T14:34:24;2.50;;;0.80;;
18610;SDS011;9435;52.122;5.502;2023-07-20T14:36:52;2.28;;;0.60;;
18610;SDS011;9435;52.122;5.502;2023-07-20T14:39:20;2.42;;;0.90;;
18610;SDS011;9435;52.122;5.502;2023-07-20T14:41:47;2.22;;;0.90;;
18610;SDS011;9435;52.122;5.502;2023-07-20T14:44:16;1.20;;;0.60;;
18610;SDS011;9435;52.122;5.502;2023-07-20T14:46:43;1.23;;;0.80;;
18610;SDS011;9435;52.122;5.502;2023-07-20T14:49:10;2.08;;;0.90;;
18610;SDS011;9435;52.122;5.502;2023-07-20T14:51:37;2.28;;;0.98;;
18610;SDS011;9435;52.122;5.502;2023-07-20T14:54:09;1.58;;;0.80;;
18610;SDS011;9435;52.122;5.502;2023-07-20T14:56:38;2.75;;;0.77;;
18610;SDS011;9435;52.122;5.502;2023-07-20T14:59:05;1.00;;;0.70;;
18610;SDS011;9435;52.122;5.502;2023-07-20T15:01:32;1.85;;;0.80;;
18610;SDS011;9435;52.122;5.502;2023-07-20T15:04:00;2.25;;;0.80;;
18610;SDS011;9435;52.122;5.502;2023-07-20T15:06:27;1.55;;;0.82;;
18610;SDS011;9435;52.122;5.502;2023-07-20T15:08:55;1.50;;;0.70;;
18610;SDS011;9435;52.122;5.502;2023-07-20T15:11:24;1.13;;;0.80;;
18610;SDS011;9435;52.122;5.502;2023-07-20T15:13:51;2.08;;;0.80;;
18610;SDS011;9435;52.122;5.502;2023-07-20T15:16:18;0.95;;;0.70;;
18610;SDS011;9435;52.122;5.502;2023-07-20T15:18:45;1.63;;;0.90;;